Time;durP1;ratioP1;P1;durP2;ratioP2;P2;SDS_P1;SDS_P2;PMS_P1;PMS_P2;Temp;Humidity;BMP_temperature;BMP_pressure;BME280_temperature;BME280_humidity;BME280_pressure;Samples;Min_cycle;Max_cycle;Signal;HPM_P1;HPM_P2
2021/12/10 00:01:33;;;;;;;;;15.00;15.00;;;;;21.18;47.31;99823.47;109332;1280;18974;-71
2021/12/10 00:03:59;;;;;;;;;16.00;14.00;;;;;21.17;47.25;99818.66;109358;1280;19331;-71
2021/12/10 00:06:25;;;;;;;;;15.00;13.50;;;;;21.17;47.31;99815.42;109361;1280;18547;-71
2021/12/10 00:08:51;;;;;;;;;17.00;16.67;;;;;21.16;47.13;99809.95;109322;1280;21898;-70
2021/12/10 00:11:17;;;;;;;;;13.67;13.00;;;;;21.16;47.28;99800.27;109296;1280;22316;-71
2021/12/10 00:13:45;;;;;;;;;16.00;16.00;;;;;21.16;47.32;99796.88;109331;1280;19671;-71
2021/12/10 00:16:11;;;;;;;;;14.67;14.00;;;;;21.15;47.14;99799.14;109308;1279;21803;-71
2021/12/10 00:18:40;;;;;;;;;19.67;16.00;;;;;21.15;47.07;99796.41;109111;1273;127558;-71
2021/12/10 00:21:06;;;;;;;;;16.67;14.67;;;;;21.15;46.87;99795.37;109325;1279;19378;-70
2021/12/10 00:23:32;;;;;;;;;16.00;16.00;;;;;21.16;46.95;99796.29;109322;1280;18807;-71
2021/12/10 00:25:58;;;;;;;;;14.00;13.00;;;;;21.16;46.99;99791.80;109346;1279;20416;-71
2021/12/10 00:28:24;;;;;;;;;16.00;14.00;;;;;21.15;46.90;99784.46;109380;1279;18567;-71
2021/12/10 00:31:00;;;;;;;;;16.00;16.00;;;;;21.14;46.86;99782.45;109350;1279;18539;-71
2021/12/10 00:33:26;;;;;;;;;14.00;13.33;;;;;21.14;46.77;99775.75;109358;1280;20271;-71
2021/12/10 00:35:52;;;;;;;;;16.00;13.67;;;;;21.14;46.77;99780.48;109385;1279;18891;-71
2021/12/10 00:38:18;;;;;;;;;20.00;16.67;;;;;21.15;46.76;99774.24;109345;1280;19027;-71
2021/12/10 00:40:44;;;;;;;;;17.00;14.00;;;;;21.14;46.74;99768.20;109391;1279;19653;-71
2021/12/10 00:43:10;;;;;;;;;17.00;14.00;;;;;21.16;46.75;99770.56;109368;1279;18647;-70
2021/12/10 00:45:36;;;;;;;;;18.00;17.00;;;;;21.14;46.71;99774.54;109396;1280;18807;-70
2021/12/10 00:48:02;;;;;;;;;16.00;14.00;;;;;21.14;46.62;99773.44;109347;1280;19344;-71
2021/12/10 00:50:28;;;;;;;;;17.00;13.50;;;;;21.15;46.60;99771.05;109330;1280;19129;-71
2021/12/10 00:52:54;;;;;;;;;21.00;15.00;;;;;21.11;46.67;99763.16;109385;1280;19260;-70
2021/12/10 00:55:20;;;;;;;;;14.00;13.00;;;;;21.14;46.54;99769.95;109337;1280;19385;-71
2021/12/10 00:57:46;;;;;;;;;16.00;13.00;;;;;21.14;46.54;99765.14;109364;1280;18949;-71
2021/12/10 01:00:12;;;;;;;;;14.00;14.00;;;;;21.13;46.34;99760.86;109328;1280;22206;-72
2021/12/10 01:02:37;;;;;;;;;16.00;13.00;;;;;21.14;46.31;99759.69;109417;1279;19581;-72
2021/12/10 01:05:03;;;;;;;;;17.00;15.50;;;;;21.13;46.45;99759.77;109386;1279;18878;-71
2021/12/10 01:07:29;;;;;;;;;16.00;13.33;;;;;21.12;46.45;99755.54;109332;1280;19674;-71
2021/12/10 01:09:56;;;;;;;;;14.00;14.00;;;;;21.13;46.49;99752.90;109326;1279;20074;-71
2021/12/10 01:12:21;;;;;;;;;13.67;13.00;;;;;21.13;46.31;99753.40;109347;1280;22346;-72
2021/12/10 01:14:59;;;;;;;;;14.00;13.50;;;;;21.13;46.30;99754.31;109352;1280;18728;-72
2021/12/10 01:25:51;;;;;;;;;15.00;13.00;;;;;21.12;46.18;99736.30;109321;1280;19735;-69
2021/12/10 01:28:17;;;;;;;;;16.67;15.33;;;;;21.11;46.18;99734.77;109356;1279;20367;-69
2021/12/10 01:30:43;;;;;;;;;12.00;12.00;;;;;21.12;46.16;99733.48;109368;1280;22463;-71
2021/12/10 01:33:09;;;;;;;;;12.67;12.33;;;;;21.11;46.06;99732.98;109348;1279;22512;-71
2021/12/10 01:35:35;;;;;;;;;17.00;14.00;;;;;21.10;46.12;99724.55;109341;1280;18705;-71
2021/12/10 01:38:01;;;;;;;;;16.50;14.00;;;;;21.10;46.04;99714.94;109385;1280;19075;-70
2021/12/10 01:40:27;;;;;;;;;20.50;16.00;;;;;21.10;46.21;99709.03;109323;1280;19551;-71
2021/12/10 01:42:55;;;;;;;;;14.00;12.67;;;;;21.10;46.01;99703.42;109364;1279;19426;-70
2021/12/10 01:45:22;;;;;;;;;15.00;13.00;;;;;21.11;45.91;99699.10;109331;1280;20344;-71
2021/12/10 01:47:48;;;;;;;;;13.00;12.00;;;;;21.10;45.86;99690.98;109322;1280;21651;-70
2021/12/10 01:50:13;;;;;;;;;13.00;13.00;;;;;21.09;45.90;99686.39;109344;1280;21552;-71
2021/12/10 01:52:39;;;;;;;;;12.50;12.00;;;;;21.09;45.92;99681.48;109372;1280;19522;-71
2021/12/10 01:55:05;;;;;;;;;13.00;12.00;;;;;21.11;45.94;99674.92;109375;1280;23599;-70
2021/12/10 01:57:31;;;;;;;;;16.00;14.00;;;;;21.11;45.82;99669.25;109378;1280;22976;-71
2021/12/10 01:59:57;;;;;;;;;12.00;12.00;;;;;21.10;45.77;99665.36;109383;1280;22293;-71
2021/12/10 02:02:23;;;;;;;;;14.00;14.00;;;;;21.11;45.81;99659.66;109357;1279;21123;-70
2021/12/10 02:04:49;;;;;;;;;17.00;12.00;;;;;21.11;45.85;99654.02;109371;1279;19122;-71
2021/12/10 02:07:15;;;;;;;;;14.00;12.00;;;;;21.11;45.74;99647.50;109325;1280;19192;-71
2021/12/10 02:09:41;;;;;;;;;19.50;13.00;;;;;21.11;45.61;99641.44;109350;1280;19911;-71
2021/12/10 02:12:07;;;;;;;;;12.00;12.00;;;;;21.08;45.51;99635.89;109349;1280;22229;-70
2021/12/10 02:14:33;;;;;;;;;12.00;12.00;;;;;21.11;45.72;99636.60;109350;1280;22546;-71
2021/12/10 02:16:59;;;;;;;;;13.00;12.00;;;;;21.09;45.57;99628.97;109339;1280;21006;-70
2021/12/10 02:19:25;;;;;;;;;16.67;13.00;;;;;21.09;45.61;99634.80;109334;1280;20270;-69
2021/12/10 02:21:51;;;;;;;;;16.00;12.00;;;;;21.09;45.62;99641.13;109362;1279;21210;-70
2021/12/10 02:24:18;;;;;;;;;12.00;12.00;;;;;21.10;45.65;99633.46;109342;1279;20812;-69
2021/12/10 02:26:44;;;;;;;;;9.33;9.33;;;;;21.08;45.48;99621.77;109334;1281;21355;-69
2021/12/10 02:29:10;;;;;;;;;16.33;14.33;;;;;21.09;45.47;99608.48;109297;1279;21256;-69
2021/12/10 02:31:36;;;;;;;;;10.00;10.00;;;;;21.08;45.60;99604.20;109339;1279;21262;-69
2021/12/10 02:34:02;;;;;;;;;13.00;13.00;;;;;21.08;45.41;99602.40;109359;1280;19135;-69
2021/12/10 02:36:28;;;;;;;;;16.00;13.00;;;;;21.05;45.56;99606.66;109363;1280;19413;-70
2021/12/10 02:38:54;;;;;;;;;13.00;12.00;;;;;21.06;45.46;99605.34;109350;1280;20937;-70
2021/12/10 02:41:20;;;;;;;;;12.00;12.00;;;;;21.07;45.33;99600.52;109441;1280;22126;-69
2021/12/10 02:43:46;;;;;;;;;12.00;12.00;;;;;21.08;45.39;99603.58;109374;1279;22166;-70
2021/12/10 02:46:12;;;;;;;;;16.00;13.50;;;;;21.06;45.52;99605.63;109366;1279;20051;-71
2021/12/10 02:48:38;;;;;;;;;13.00;12.00;;;;;21.08;45.35;99611.08;109357;1280;22619;-72
2021/12/10 02:51:04;;;;;;;;;14.00;12.00;;;;;21.08;45.28;99608.40;109363;1280;22218;-71
2021/12/10 02:53:34;;;;;;;;;14.00;12.00;;;;;21.09;45.35;99614.23;109419;1280;23371;-71
2021/12/10 02:56:01;;;;;;;;;10.67;10.00;;;;;21.09;45.26;99608.23;109377;1279;21187;-71
2021/12/10 02:58:27;;;;;;;;;16.50;12.50;;;;;21.09;45.22;99609.95;109353;1279;23181;-72
2021/12/10 03:00:53;;;;;;;;;16.00;14.00;;;;;21.09;45.24;99608.31;109394;1278;19376;-71
2021/12/10 03:03:19;;;;;;;;;12.50;12.00;;;;;21.09;45.19;99605.50;109370;1279;18537;-71
2021/12/10 03:05:45;;;;;;;;;13.00;12.50;;;;;21.08;45.11;99600.56;109341;1280;18805;-71
2021/12/10 03:08:11;;;;;;;;;10.00;10.00;;;;;21.04;45.06;99583.13;109326;1279;20051;-71
2021/12/10 03:10:37;;;;;;;;;13.00;12.00;;;;;21.07;45.17;99587.77;109367;1280;18532;-71
2021/12/10 03:13:03;;;;;;;;;12.00;10.00;;;;;21.04;45.07;99580.06;109356;1280;19322;-71
2021/12/10 03:15:28;;;;;;;;;14.00;13.00;;;;;21.08;45.16;99587.40;109360;1279;19357;-71
2021/12/10 03:17:54;;;;;;;;;12.00;9.00;;;;;21.07;45.06;99582.74;109320;1280;18738;-71
2021/12/10 03:20:20;;;;;;;;;13.00;12.50;;;;;21.07;45.04;99584.52;109320;1280;18661;-71
2021/12/10 03:22:46;;;;;;;;;10.00;9.50;;;;;21.09;45.06;99580.86;109349;1280;20934;-71
2021/12/10 03:25:12;;;;;;;;;18.00;13.00;;;;;21.07;44.84;99581.33;109354;1280;19176;-71
2021/12/10 03:27:38;;;;;;;;;12.50;12.50;;;;;21.08;44.89;99580.56;109361;1280;23793;-71
2021/12/10 03:30:04;;;;;;;;;13.00;13.00;;;;;21.08;44.97;99577.39;109352;1279;20596;-71
2021/12/10 03:32:30;;;;;;;;;12.00;10.00;;;;;21.07;44.93;99571.14;109375;1280;19223;-70
2021/12/10 03:34:56;;;;;;;;;15.67;12.67;;;;;21.07;44.87;99564.27;109310;1280;20392;-69
2021/12/10 03:37:22;;;;;;;;;13.50;12.00;;;;;21.06;44.81;99560.70;109339;1280;19329;-71
2021/12/10 03:39:48;;;;;;;;;14.00;12.67;;;;;21.08;44.66;99560.16;109308;1280;19083;-70
2021/12/10 03:42:15;;;;;;;;;13.50;12.50;;;;;21.07;44.84;99565.43;109361;1279;20234;-71
2021/12/10 03:44:41;;;;;;;;;12.00;10.00;;;;;21.06;44.63;99566.15;109326;1279;19881;-71
2021/12/10 03:47:07;;;;;;;;;10.00;9.00;;;;;21.08;44.73;99574.61;109382;1278;20797;-70
2021/12/10 03:49:32;;;;;;;;;10.00;9.00;;;;;21.08;44.65;99569.88;109334;1280;18678;-71
2021/12/10 03:51:58;;;;;;;;;12.00;12.00;;;;;21.08;44.79;99563.96;109363;1279;20111;-71
2021/12/10 03:54:24;;;;;;;;;14.00;13.00;;;;;21.08;44.71;99575.37;109384;1279;18513;-71
2021/12/10 03:56:50;;;;;;;;;14.00;12.00;;;;;21.09;44.65;99583.24;109352;1279;18888;-71
2021/12/10 03:59:16;;;;;;;;;16.50;13.50;;;;;21.07;44.79;99581.79;109363;1279;19757;-70
2021/12/10 04:01:42;;;;;;;;;13.00;11.00;;;;;21.08;44.78;99575.41;109353;1280;18562;-71
2021/12/10 04:04:08;;;;;;;;;13.50;12.50;;;;;21.07;44.64;99566.52;109343;1279;19285;-70
2021/12/10 04:06:34;;;;;;;;;13.00;13.00;;;;;21.06;44.65;99558.15;109370;1279;19404;-71
2021/12/10 04:09:00;;;;;;;;;12.00;12.00;;;;;21.06;44.74;99561.76;109378;1279;18623;-70
2021/12/10 04:11:26;;;;;;;;;13.00;11.00;;;;;21.05;44.63;99561.02;109344;1279;18605;-70
2021/12/10 04:13:52;;;;;;;;;12.50;12.00;;;;;21.05;44.36;99554.80;109335;1279;19951;-70
2021/12/10 04:16:18;;;;;;;;;13.00;12.00;;;;;21.07;44.70;99552.83;109341;1279;18894;-70
2021/12/10 04:18:44;;;;;;;;;12.00;12.00;;;;;21.06;44.55;99559.58;109383;1280;18865;-70
2021/12/10 04:21:12;;;;;;;;;13.50;13.50;;;;;21.06;44.61;99555.85;109399;1279;20877;-71
2021/12/10 04:23:38;;;;;;;;;16.33;14.33;;;;;21.04;44.36;99558.85;109382;1280;20323;-70
2021/12/10 04:26:04;;;;;;;;;11.67;11.33;;;;;21.05;44.52;99562.45;109393;1279;20573;-70
2021/12/10 04:28:29;;;;;;;;;13.00;12.00;;;;;21.05;44.53;99559.09;109456;1279;21053;-70
2021/12/10 04:30:55;;;;;;;;;13.00;13.00;;;;;21.05;44.33;99560.54;109421;1280;18631;-71
2021/12/10 04:33:22;;;;;;;;;12.50;12.50;;;;;21.05;44.42;99559.77;109398;1279;21274;-70
2021/12/10 04:35:48;;;;;;;;;9.00;9.00;;;;;21.05;44.28;99562.79;109376;1279;19774;-71
2021/12/10 04:38:14;;;;;;;;;14.00;13.00;;;;;21.05;44.42;99556.16;109309;1279;18557;-70
2021/12/10 04:40:40;;;;;;;;;16.00;12.00;;;;;21.06;44.40;99550.27;109319;1279;18876;-70
2021/12/10 04:43:06;;;;;;;;;10.00;10.00;;;;;21.07;44.31;99550.64;109337;1280;19797;-71
2021/12/10 04:45:32;;;;;;;;;12.00;10.00;;;;;21.06;44.39;99553.79;109356;1280;18736;-71
2021/12/10 04:47:58;;;;;;;;;13.00;12.00;;;;;21.05;44.38;99548.33;109346;1280;18662;-71
2021/12/10 04:50:24;;;;;;;;;13.00;12.00;;;;;21.06;44.31;99551.27;109385;1280;19307;-71
2021/12/10 04:52:49;;;;;;;;;12.50;11.00;;;;;21.05;44.37;99551.60;109364;1280;19115;-71
2021/12/10 04:55:15;;;;;;;;;16.00;13.00;;;;;21.05;44.21;99549.80;109324;1280;18848;-71
2021/12/10 04:57:41;;;;;;;;;14.00;10.00;;;;;21.04;44.18;99546.40;109372;1280;19273;-71
2021/12/10 05:00:07;;;;;;;;;13.00;12.00;;;;;21.05;44.29;99543.44;109337;1279;18858;-71
2021/12/10 05:02:35;;;;;;;;;13.00;12.00;;;;;21.04;44.18;99543.18;109322;1279;19400;-71
2021/12/10 05:05:01;;;;;;;;;12.00;10.00;;;;;21.04;44.00;99538.22;109333;1280;21322;-70
2021/12/10 05:07:30;;;;;;;;;11.00;10.00;;;;;21.04;44.15;99534.25;109364;1280;18556;-71
2021/12/10 05:09:56;;;;;;;;;13.67;12.00;;;;;21.05;44.08;99531.79;109385;1280;21339;-71
2021/12/10 05:12:22;;;;;;;;;11.00;11.00;;;;;21.06;44.02;99526.74;109339;1279;20818;-71
2021/12/10 05:14:47;;;;;;;;;11.00;10.00;;;;;21.05;44.19;99524.70;109357;1280;20153;-71
2021/12/10 05:17:13;;;;;;;;;12.00;12.00;;;;;21.04;43.99;99523.77;109393;1279;18676;-70
2021/12/10 05:19:40;;;;;;;;;12.33;12.00;;;;;21.05;44.03;99524.20;109370;1280;23100;-71
2021/12/10 05:22:06;;;;;;;;;10.00;9.00;;;;;21.05;44.15;99518.16;109370;1279;18667;-70
2021/12/10 05:24:31;;;;;;;;;11.00;10.00;;;;;21.02;43.89;99507.67;109377;1280;20766;-71
2021/12/10 05:26:57;;;;;;;;;12.00;12.00;;;;;21.04;43.89;99510.48;109289;1280;24534;-69
2021/12/10 05:29:23;;;;;;;;;13.50;13.00;;;;;21.04;43.91;99506.09;109398;1279;22329;-71
2021/12/10 05:31:49;;;;;;;;;10.00;10.00;;;;;21.04;44.01;99501.38;109376;1280;18761;-71
2021/12/10 05:34:15;;;;;;;;;12.00;10.00;;;;;21.04;43.99;99497.75;109354;1280;19503;-71
2021/12/10 05:36:41;;;;;;;;;15.00;12.00;;;;;21.04;43.92;99496.20;109367;1280;18576;-71
2021/12/10 05:39:08;;;;;;;;;10.67;10.67;;;;;21.03;43.98;99499.55;109338;1280;19065;-71
2021/12/10 05:41:34;;;;;;;;;14.00;12.50;;;;;21.03;43.94;99497.95;109369;1280;19296;-72
2021/12/10 05:44:00;;;;;;;;;14.00;14.00;;;;;21.03;43.86;99498.33;109269;1279;18518;-71
2021/12/10 05:46:25;;;;;;;;;10.00;9.50;;;;;21.03;43.80;99495.52;109222;1280;21071;-71
2021/12/10 05:48:51;;;;;;;;;10.00;10.00;;;;;21.03;43.81;99485.76;109366;1280;21532;-71
2021/12/10 05:51:17;;;;;;;;;14.00;13.00;;;;;21.03;43.69;99487.35;109349;1280;22552;-71
2021/12/10 05:53:43;;;;;;;;;14.00;12.00;;;;;21.03;43.76;99481.23;109390;1280;19357;-71
2021/12/10 05:56:09;;;;;;;;;12.50;11.00;;;;;21.04;43.89;99477.71;109338;1280;22004;-71
2021/12/10 05:58:35;;;;;;;;;10.00;9.00;;;;;21.04;43.83;99475.99;109376;1279;20615;-71
2021/12/10 06:01:02;;;;;;;;;9.00;9.00;;;;;21.03;43.84;99477.87;109384;1280;20165;-71
2021/12/10 06:03:29;;;;;;;;;13.67;11.33;;;;;21.05;43.62;99468.24;109347;1280;19922;-69
2021/12/10 06:05:54;;;;;;;;;14.33;12.00;;;;;21.04;43.72;99457.27;109356;1279;18744;-69
2021/12/10 06:08:21;;;;;;;;;12.00;10.00;;;;;21.04;43.66;99459.48;109291;1280;18843;-69
2021/12/10 06:10:48;;;;;;;;;11.33;9.33;;;;;21.05;43.77;99460.82;109288;1280;23125;-71
2021/12/10 06:13:14;;;;;;;;;12.33;12.00;;;;;21.04;43.72;99467.02;109301;1279;21554;-71
2021/12/10 06:15:40;;;;;;;;;13.00;12.00;;;;;21.04;43.75;99469.21;109264;1280;22747;-71
2021/12/10 06:18:06;;;;;;;;;13.00;12.00;;;;;21.04;43.62;99464.60;109348;1280;22549;-71
2021/12/10 06:20:32;;;;;;;;;10.00;10.00;;;;;21.04;43.69;99466.86;109391;1279;18628;-71
2021/12/10 06:22:59;;;;;;;;;12.00;10.00;;;;;21.04;43.67;99482.37;109407;1279;19303;-70
2021/12/10 06:25:25;;;;;;;;;9.33;9.00;;;;;21.03;43.60;99490.83;109371;1280;21077;-71
2021/12/10 06:27:51;;;;;;;;;11.00;10.00;;;;;21.04;43.62;99486.52;109393;1280;18644;-71
2021/12/10 06:30:17;;;;;;;;;13.00;12.00;;;;;21.04;43.72;99494.81;109314;1279;18706;-71
2021/12/10 06:32:43;;;;;;;;;11.00;10.00;;;;;21.05;43.58;99487.90;109349;1279;19344;-71
2021/12/10 06:35:09;;;;;;;;;13.00;10.00;;;;;21.03;43.78;99473.05;109354;1280;19862;-71
2021/12/10 06:37:35;;;;;;;;;10.00;9.00;;;;;21.03;43.52;99469.52;109343;1279;18580;-71
2021/12/10 06:40:01;;;;;;;;;13.00;12.00;;;;;21.03;43.61;99469.41;109300;1280;19311;-71
2021/12/10 06:42:27;;;;;;;;;12.50;12.50;;;;;21.03;43.73;99472.80;109335;1280;22585;-71
2021/12/10 06:44:53;;;;;;;;;13.00;12.00;;;;;21.01;43.82;99471.68;109319;1280;20320;-72
2021/12/10 06:47:19;;;;;;;;;13.00;12.00;;;;;21.07;43.76;99464.77;109362;1279;23868;-71
2021/12/10 06:49:44;;;;;;;;;12.00;12.00;;;;;21.13;43.73;99471.89;109336;1280;19145;-72
2021/12/10 06:52:11;;;;;;;;;12.00;10.00;;;;;21.19;44.17;99472.77;109370;1279;19470;-72
2021/12/10 06:54:39;;;;;;;;;13.00;12.00;;;;;21.22;44.13;99483.23;109343;1280;19500;-72
2021/12/10 06:57:05;;;;;;;;;11.33;10.00;;;;;21.22;44.52;99481.91;109239;1280;18791;-75
2021/12/10 06:59:31;;;;;;;;;10.00;10.00;;;;;21.20;44.77;99484.55;109270;1280;18706;-72
2021/12/10 07:01:57;;;;;;;;;13.50;12.50;;;;;21.26;44.66;99478.15;109317;1280;19328;-73
2021/12/10 07:04:23;;;;;;;;;13.00;10.00;;;;;21.28;44.57;99475.06;109337;1279;19348;-71
2021/12/10 07:06:49;;;;;;;;;11.33;11.33;;;;;21.29;44.69;99477.83;109325;1279;20746;-71
2021/12/10 07:09:15;;;;;;;;;15.33;13.67;;;;;21.29;45.04;99478.54;109305;1280;19760;-73
2021/12/10 07:11:41;;;;;;;;;13.00;13.00;;;;;21.34;45.01;99476.27;109337;1280;18642;-72
2021/12/10 07:14:07;;;;;;;;;12.00;10.00;;;;;21.41;44.94;99475.92;109330;1280;19966;-71
2021/12/10 07:16:33;;;;;;;;;13.50;13.00;;;;;21.44;44.89;99473.31;109337;1280;19346;-70
2021/12/10 07:18:59;;;;;;;;;12.00;10.00;;;;;21.43;45.25;99466.58;109299;1279;19086;-73
2021/12/10 07:21:26;;;;;;;;;10.00;10.00;;;;;21.42;45.43;99465.45;109193;1280;18692;-71
2021/12/10 07:23:52;;;;;;;;;13.00;12.00;;;;;21.41;45.60;99462.05;109786;1280;23363;-73
2021/12/10 07:26:18;;;;;;;;;13.50;13.00;;;;;21.44;45.59;99461.50;109210;1280;20561;-71
2021/12/10 07:28:44;;;;;;;;;13.00;13.00;;;;;21.44;45.68;99465.86;109328;1280;18747;-71
2021/12/10 07:31:10;;;;;;;;;14.00;12.00;;;;;21.43;45.91;99464.10;109278;1279;19459;-76
2021/12/10 07:33:36;;;;;;;;;11.00;9.50;;;;;21.42;45.72;99458.86;109295;1280;18560;-72
2021/12/10 07:36:02;;;;;;;;;14.00;13.00;;;;;21.42;45.72;99459.95;109279;1280;22331;-72
2021/12/10 07:38:28;;;;;;;;;20.00;17.00;;;;;21.41;45.86;99461.26;109198;1279;19323;-72
2021/12/10 07:40:54;;;;;;;;;13.00;12.00;;;;;21.37;46.02;99457.23;109270;1278;22531;-72
2021/12/10 07:43:20;;;;;;;;;10.00;10.00;;;;;21.32;46.59;99456.56;109217;1279;18966;-72
2021/12/10 07:45:47;;;;;;;;;15.00;13.00;;;;;21.28;46.76;99453.58;109308;1279;19311;-71
2021/12/10 07:48:15;;;;;;;;;13.00;13.00;;;;;21.26;46.78;99452.85;109269;1279;18816;-72
2021/12/10 07:50:42;;;;;;;;;14.00;12.67;;;;;21.24;46.82;99458.02;109284;1280;19622;-72
2021/12/10 07:53:07;;;;;;;;;13.00;12.67;;;;;21.24;46.66;99454.79;109237;1279;20118;-71
2021/12/10 07:55:33;;;;;;;;;14.00;12.00;;;;;21.27;46.66;99451.92;109245;1280;18876;-72
2021/12/10 07:57:59;;;;;;;;;14.00;14.00;;;;;21.29;47.06;99444.98;109322;1280;18762;-71
2021/12/10 08:00:25;;;;;;;;;16.00;13.00;;;;;21.27;47.32;99444.13;109305;1280;19272;-71
2021/12/10 08:02:51;;;;;;;;;12.00;12.00;;;;;21.26;47.21;99444.80;109260;1279;20676;-71
2021/12/10 08:05:17;;;;;;;;;14.00;12.50;;;;;21.27;46.63;99446.70;109335;1280;18691;-72
2021/12/10 08:07:43;;;;;;;;;14.00;13.00;;;;;21.33;46.57;99448.30;109340;1280;19882;-71
2021/12/10 08:10:09;;;;;;;;;16.50;13.50;;;;;21.39;47.13;99454.48;109390;1280;18733;-71
2021/12/10 08:12:35;;;;;;;;;13.50;11.00;;;;;21.42;49.05;99453.23;109403;1279;18962;-70
2021/12/10 08:15:01;;;;;;;;;13.00;12.00;;;;;21.46;49.58;99455.78;109399;1279;20003;-70
2021/12/10 08:17:27;;;;;;;;;14.00;13.00;;;;;21.50;49.53;99459.60;108927;1272;645538;-72
2021/12/10 08:19:53;;;;;;;;;16.00;14.00;;;;;21.51;49.19;99455.98;109369;1280;18512;-71
2021/12/10 08:22:19;;;;;;;;;13.00;12.00;;;;;21.50;49.55;99459.02;109315;1280;19359;-71
2021/12/10 08:24:45;;;;;;;;;13.50;12.00;;;;;21.49;49.04;99461.08;109369;1280;18666;-71
2021/12/10 08:27:12;;;;;;;;;12.00;12.00;;;;;21.47;49.50;99461.20;109333;1279;19048;-71
2021/12/10 08:29:41;;;;;;;;;14.00;14.00;;;;;21.46;49.41;99464.92;109300;1280;20043;-72
2021/12/10 08:32:07;;;;;;;;;13.33;13.00;;;;;21.44;49.37;99461.50;109305;1280;21879;-72
2021/12/10 08:34:33;;;;;;;;;18.67;13.00;;;;;21.44;49.25;99463.26;109318;1279;19492;-71
2021/12/10 08:37:00;;;;;;;;;14.00;12.00;;;;;21.47;49.20;99470.33;109333;1280;19098;-71
2021/12/10 08:39:26;;;;;;;;;13.00;12.00;;;;;21.46;48.53;99472.06;109364;1279;19176;-71
2021/12/10 08:41:55;;;;;;;;;13.50;12.50;;;;;21.46;48.43;99467.40;109338;1280;18584;-73
2021/12/10 08:44:21;;;;;;;;;12.00;12.00;;;;;21.42;48.37;99468.20;109352;1279;19696;-72
2021/12/10 08:46:48;;;;;;;;;16.00;14.00;;;;;21.40;48.46;99470.35;109395;1280;18558;-71
2021/12/10 08:49:14;;;;;;;;;13.00;12.00;;;;;21.43;48.45;99471.02;109383;1280;18975;-71
2021/12/10 08:51:40;;;;;;;;;12.00;10.00;;;;;21.43;48.17;99472.86;109423;1280;19268;-72
2021/12/10 08:54:06;;;;;;;;;13.00;12.00;;;;;21.43;48.28;99467.75;109388;1279;18581;-72
2021/12/10 08:56:32;;;;;;;;;14.00;13.00;;;;;21.39;48.12;99464.19;109339;1280;19997;-71
2021/12/10 08:59:00;;;;;;;;;13.00;12.00;;;;;21.37;47.64;99471.58;109323;1280;19895;-72
2021/12/10 09:01:26;;;;;;;;;14.67;13.00;;;;;21.33;47.91;99474.63;109400;1280;18733;-72
2021/12/10 09:03:52;;;;;;;;;12.00;12.00;;;;;21.30;47.99;99469.41;109321;1279;19165;-72
2021/12/10 09:06:18;;;;;;;;;16.00;13.00;;;;;21.27;48.00;99464.88;109360;1280;19438;-72
2021/12/10 09:08:44;;;;;;;;;14.00;13.00;;;;;21.21;48.01;99456.63;109366;1280;20688;-72
2021/12/10 09:11:10;;;;;;;;;16.00;14.00;;;;;21.24;47.75;99460.41;109379;1280;23129;-72
2021/12/10 09:13:35;;;;;;;;;13.00;12.00;;;;;21.23;47.77;99459.65;109340;1279;19907;-73
2021/12/10 09:16:01;;;;;;;;;16.00;13.00;;;;;21.21;47.62;99454.45;109370;1279;19331;-72
2021/12/10 09:18:28;;;;;;;;;14.00;13.00;;;;;21.20;47.39;99453.91;109412;1279;19513;-72
2021/12/10 09:20:54;;;;;;;;;13.67;12.00;;;;;21.19;47.40;99459.98;109348;1280;21049;-72
2021/12/10 09:23:20;;;;;;;;;13.00;12.00;;;;;21.19;47.08;99460.20;109331;1280;18743;-72
2021/12/10 09:25:46;;;;;;;;;13.00;12.50;;;;;21.16;46.89;99457.14;109384;1279;20723;-72
2021/12/10 09:28:12;;;;;;;;;12.50;12.00;;;;;21.18;47.02;99464.73;109372;1280;19359;-72
2021/12/10 09:30:37;;;;;;;;;13.00;12.00;;;;;21.16;46.97;99463.15;109358;1280;21995;-72
2021/12/10 09:33:03;;;;;;;;;17.50;14.00;;;;;21.15;46.67;99451.77;109300;1280;18716;-72
2021/12/10 09:35:29;;;;;;;;;14.00;12.50;;;;;21.16;46.62;99447.91;109308;1280;19937;-72
2021/12/10 09:37:55;;;;;;;;;13.50;12.50;;;;;21.13;46.62;99442.45;109358;1279;22610;-72
2021/12/10 09:40:21;;;;;;;;;14.00;13.00;;;;;21.16;46.52;99448.99;109374;1280;18732;-72
2021/12/10 09:42:47;;;;;;;;;16.00;13.00;;;;;21.15;46.27;99443.30;109411;1279;19313;-72
2021/12/10 09:45:13;;;;;;;;;18.67;13.33;;;;;21.15;46.29;99443.25;109372;1280;18957;-71
2021/12/10 09:47:40;;;;;;;;;17.00;14.67;;;;;21.14;46.16;99438.69;109335;1280;19514;-72
2021/12/10 09:50:06;;;;;;;;;18.00;13.00;;;;;21.16;46.07;99437.60;109347;1280;20102;-70
2021/12/10 09:52:32;;;;;;;;;14.00;14.00;;;;;21.14;45.91;99439.66;109341;1279;18884;-72
2021/12/10 09:54:58;;;;;;;;;13.00;13.00;;;;;21.14;45.92;99442.38;109335;1280;18823;-72
2021/12/10 09:57:24;;;;;;;;;12.00;12.00;;;;;21.14;45.82;99442.02;109344;1279;22368;-72
2021/12/10 09:59:51;;;;;;;;;20.00;16.00;;;;;21.13;45.88;99438.44;109357;1279;18600;-72
2021/12/10 10:02:17;;;;;;;;;13.67;13.33;;;;;21.14;45.74;99442.14;109315;1280;20420;-72
2021/12/10 10:04:48;;;;;;;;;16.50;15.50;;;;;21.14;45.65;99441.20;109292;1279;20908;-73
2021/12/10 10:07:14;;;;;;;;;23.50;20.50;;;;;21.12;45.50;99442.39;109295;1280;18987;-70
2021/12/10 10:09:41;;;;;;;;;22.50;21.00;;;;;21.16;45.16;99443.48;109338;1280;20242;-71
2021/12/10 10:12:07;;;;;;;;;21.67;20.67;;;;;21.21;44.71;99445.17;109285;1280;21819;-71
2021/12/10 10:14:33;;;;;;;;;29.33;21.33;;;;;21.26;44.81;99446.73;109329;1279;18897;-73
2021/12/10 10:16:59;;;;;;;;;22.00;20.00;;;;;21.28;44.98;99442.71;109327;1280;18586;-72
2021/12/10 10:19:25;;;;;;;;;27.00;22.00;;;;;21.27;45.76;99441.41;109360;1280;22351;-73
2021/12/10 10:21:53;;;;;;;;;22.00;21.00;;;;;21.29;45.76;99445.56;109391;1280;19048;-74
2021/12/10 10:24:19;;;;;;;;;32.50;24.00;;;;;21.28;45.66;99440.38;109388;1280;19597;-74
2021/12/10 10:26:45;;;;;;;;;27.00;24.00;;;;;21.33;45.49;99440.63;109373;1279;20780;-73
2021/12/10 10:29:12;;;;;;;;;29.00;26.00;;;;;21.36;45.05;99446.46;109363;1280;18706;-74
2021/12/10 10:31:38;;;;;;;;;32.00;28.67;;;;;21.35;45.21;99447.50;109340;1280;19103;-74
2021/12/10 10:34:04;;;;;;;;;31.00;30.00;;;;;21.29;44.89;99440.40;109409;1279;19368;-74
2021/12/10 10:36:30;;;;;;;;;33.50;29.00;;;;;21.34;45.09;99439.58;109388;1280;18552;-74
2021/12/10 10:38:56;;;;;;;;;30.00;26.50;;;;;21.37;45.52;99427.25;109337;1280;19289;-74
2021/12/10 10:41:22;;;;;;;;;34.00;29.00;;;;;21.43;46.39;99426.65;109382;1280;21472;-74
2021/12/10 10:43:48;;;;;;;;;34.00;32.00;;;;;21.46;45.74;99425.34;109350;1279;18723;-75
2021/12/10 10:46:14;;;;;;;;;38.00;32.00;;;;;21.45;45.47;99427.02;109413;1280;23182;-73
2021/12/10 10:48:40;;;;;;;;;29.00;28.00;;;;;21.45;45.94;99432.42;109425;1279;19345;-73
2021/12/10 10:51:06;;;;;;;;;39.50;34.00;;;;;21.45;45.82;99431.21;109375;1280;19179;-73
2021/12/10 10:53:32;;;;;;;;;33.00;28.33;;;;;21.48;45.19;99434.36;109323;1280;21577;-74
2021/12/10 10:55:58;;;;;;;;;36.00;28.50;;;;;21.49;44.87;99439.85;109428;1279;19591;-74
2021/12/10 10:58:26;;;;;;;;;32.00;28.50;;;;;21.48;44.97;99438.69;109412;1280;19264;-75
2021/12/10 11:00:59;;;;;;;;;31.33;28.00;;;;;21.48;44.73;99435.61;109387;1280;21052;-74
2021/12/10 11:03:25;;;;;;;;;33.67;29.00;;;;;21.47;44.71;99435.58;109357;1279;19799;-75
2021/12/10 11:05:51;;;;;;;;;33.00;29.50;;;;;21.44;44.68;99435.83;109352;1280;18731;-75
2021/12/10 11:08:17;;;;;;;;;35.00;32.00;;;;;21.42;44.50;99434.46;109362;1280;20894;-74
2021/12/10 11:10:43;;;;;;;;;31.00;25.00;;;;;21.41;44.89;99432.86;109336;1279;19993;-74
2021/12/10 11:13:09;;;;;;;;;32.50;28.00;;;;;21.38;44.81;99435.80;109360;1280;18902;-74